Waterbury, CT (06701)

2:53 PM EST on November 19, 2017 (GMT -0500)
Overlook | | Change Station
Active Advisory: Wind Advisory

Elev 577 ft 41.58 °N, 73.04 °W | Updated 1 second ago

Partly Cloudy
Partly Cloudy
44.7 °F
Feels Like 42 °F
N
5.0
Wind Variable Wind from NW
Gusts 26.0 mph

Today
High -- | Low -- °F
--% Chance of Precip.
Yesterday
High -- | Low -- °F
Precip. -- in
Pressure 29.52 in
Visibility 10.0 miles
Clouds Mostly Cloudy 4200 ft
Windchill 42 °F
Dew Point 32 °F
Humidity 61%
Rainfall 0.17 in
Snow Depth Not available.
6:46 AM 4:28 PM
New Moon, 2% visible
METAR KOXC 191951Z 28011G24KT 10SM BKN042 06/M02 A2949 RMK AO2 PK WND 29029/1929 SLP997 T00611022
Pressure 29.52 in
Visibility 10.0 miles
Clouds Mostly Cloudy 4200 ft
Windchill 42 °F
Dew Point 32 °F
Humidity 61%
Rainfall 0.17 in
Snow Depth Not available.
6:46 AM 4:28 PM
New Moon, 2% visible
METAR KOXC 191951Z 28011G24KT 10SM BKN042 06/M02 A2949 RMK AO2 PK WND 29029/1929 SLP997 T00611022

Get Your Daily Forecast Email!

Thanks for signing up!

Be on the lookout for a verification email in your inbox.

You'll start receiving severe weather alerts in your inbox..

×

10-Day Weather Forecast

Almanac

Astronomy

Nov. 19, 2017 Rise Set
Actual Time
Civil Twilight
Nautical Twilight
Astronomical Twilight
Moon
Length of Visible Light
Length of Day
Tomorrow will be .
, % of the Moon is Illuminated

Today's Extremes

State Highs State Lows

Community

WunderPhotos

Category 6

Welcome to Category 6. This is the collective home for Weather Underground's featured writeups by Dr. Jeff Masters (right), Bob Henson (left), Chris Burt, and other regular contributors.

Nearby

Air Quality

  Air Quality AQ Index Pollutant
Not available.

Snow Depth

Station Depth Elevation

Earthquake Activity

City Distance Mag. Time & Date
Minimum magnitude displayed is 2.5.

Coastal Water Temperatures

Place Temperature

Stations

Nearby Weather Stations

Station Location Temp. Windchill Dew Point Humidity Wind Precip. Elev Updated Type
                   

Watches & Warnings

Wind Advisory
Issued: 6:37 AM EST Nov. 19, 2017 – National Weather Service

... Wind Advisory remains in effect until 6 PM EST this evening...

* winds... west 15 to 20 mph with gusts up to 45 to 50 mph.

* Timing... through this afternoon.

* Impacts... strong winds may blow down limbs, trees, and power
lines. Scattered power outages are expected.

Precautionary/preparedness actions...

A Wind Advisory is issued when sustained winds of 31 to 39 mph...
or gusts of 46 to 57 mph... are expected or occurring. Winds this
strong can make driving difficult... especially for high profile
vehicles. Use extra caution.

A Wind Advisory is issued when sustained winds of 31 to 39 mph,
or gusts of 46 to 57 mph, are expected or occurring. Winds this
strong can make driving difficult, especially for high profile
vehicles, in open areas, and on elevated roads and bridges. Use
extra caution.